Time;durP1;ratioP1;P1;durP2;ratioP2;P2;SDS_P1;SDS_P2;PMS_P1;PMS_P2;Temp;Humidity;BMP_temperature;BMP_pressure;BME280_temperature;BME280_humidity;BME280_pressure;Samples;Min_cycle;Max_cycle;Signal;HPM_P1;HPM_P2
2023/07/15 00:01:56;;;;;;;6.18;2.17;;;18.40;99.90;;;;;;5135037;27;20034;-74
2023/07/15 00:04:21;;;;;;;2.70;1.92;;;18.30;99.90;;;;;;5134435;27;20023;-74
2023/07/15 00:06:47;;;;;;;3.00;2.10;;;18.30;99.90;;;;;;5116932;28;20385;-74
2023/07/15 00:09:15;;;;;;;3.17;2.05;;;18.30;99.90;;;;;;5134459;27;20062;-73
2023/07/15 00:11:45;;;;;;;3.40;2.22;;;18.40;99.90;;;;;;5134153;27;20373;-74
2023/07/15 00:14:23;;;;;;;4.55;2.90;;;18.30;99.90;;;;;;5134406;27;20024;-74
2023/07/15 00:16:50;;;;;;;5.15;3.80;;;18.30;99.90;;;;;;5134313;27;20083;-74
2023/07/15 00:19:18;;;;;;;5.20;3.58;;;18.20;99.90;;;;;;5134617;27;20106;-75
2023/07/15 00:21:44;;;;;;;5.50;3.83;;;18.20;99.90;;;;;;5134230;28;20064;-75
2023/07/15 00:24:10;;;;;;;4.90;3.03;;;18.20;99.90;;;;;;5134878;28;20029;-75
2023/07/15 00:26:37;;;;;;;5.10;3.30;;;18.10;99.90;;;;;;5116177;28;20545;-75
2023/07/15 00:29:04;;;;;;;4.72;3.25;;;17.90;99.90;;;;;;5134242;28;20027;-75
2023/07/15 00:31:31;;;;;;;4.72;3.10;;;17.90;99.90;;;;;;5134133;28;20023;-75
2023/07/15 00:33:56;;;;;;;4.07;2.50;;;17.80;99.90;;;;;;5134219;28;20027;-74
2023/07/15 00:36:22;;;;;;;4.07;2.55;;;17.80;99.90;;;;;;5115776;28;20369;-75
2023/07/15 00:38:48;;;;;;;5.38;2.65;;;17.80;99.90;;;;;;5135024;27;20031;-75
2023/07/15 00:41:26;;;;;;;4.80;2.50;;;17.80;99.90;;;;;;5152859;27;20022;-75
2023/07/15 00:43:56;;;;;;;3.20;2.22;;;17.80;99.90;;;;;;5154842;27;20480;-75
2023/07/15 00:46:22;;;;;;;4.53;2.00;;;17.80;99.90;;;;;;5154781;27;20030;-75
2023/07/15 00:49:10;;;;;;;3.85;2.25;;;17.80;99.90;;;;;;5154688;27;20026;-75
2023/07/15 00:51:39;;;;;;;4.82;2.22;;;17.80;99.90;;;;;;5155276;27;20093;-75
2023/07/15 00:54:05;;;;;;;3.35;2.25;;;17.80;99.90;;;;;;5136069;27;20036;-75
2023/07/15 00:56:33;;;;;;;4.10;2.45;;;17.70;99.90;;;;;;5154591;27;20023;-75
2023/07/15 00:58:59;;;;;;;4.13;2.60;;;17.60;99.90;;;;;;5154722;27;20093;-75
2023/07/15 01:01:25;;;;;;;3.90;2.63;;;17.60;99.90;;;;;;5154527;27;20489;-74
2023/07/15 01:03:51;;;;;;;3.67;2.50;;;17.60;99.90;;;;;;5154563;27;20061;-75
2023/07/15 01:06:16;;;;;;;3.55;2.20;;;17.50;99.90;;;;;;5122805;27;20027;-74
2023/07/15 01:08:42;;;;;;;3.22;2.10;;;17.40;99.90;;;;;;5128464;27;20035;-75
2023/07/15 01:11:10;;;;;;;3.25;2.30;;;17.40;99.90;;;;;;5120480;27;20060;-75
2023/07/15 01:13:36;;;;;;;4.18;2.22;;;17.40;99.90;;;;;;5123220;27;20033;-75
2023/07/15 01:16:01;;;;;;;3.53;1.90;;;17.40;99.90;;;;;;5127011;27;20024;-75
2023/07/15 01:18:28;;;;;;;3.55;2.00;;;17.40;99.90;;;;;;5118289;27;20026;-75
2023/07/15 01:20:58;;;;;;;5.03;2.47;;;17.40;99.90;;;;;;5136462;27;20060;-75
2023/07/15 01:23:24;;;;;;;2.63;1.80;;;17.40;99.90;;;;;;5119745;27;20138;-75
2023/07/15 01:25:49;;;;;;;4.20;2.35;;;17.30;99.90;;;;;;5117228;27;20546;-75
2023/07/15 01:28:15;;;;;;;3.08;1.77;;;17.30;99.90;;;;;;5117750;27;20028;-75
2023/07/15 01:30:41;;;;;;;4.43;2.60;;;17.30;99.90;;;;;;5136301;27;20072;-75
2023/07/15 01:33:06;;;;;;;3.25;2.20;;;17.20;99.90;;;;;;5136707;27;20031;-75
2023/07/15 01:35:32;;;;;;;3.92;2.17;;;17.20;99.90;;;;;;5136695;27;20019;-75
2023/07/15 01:37:58;;;;;;;3.58;2.25;;;17.20;99.90;;;;;;5136739;27;20103;-75
2023/07/15 01:40:27;;;;;;;3.30;2.15;;;17.20;99.90;;;;;;5136407;27;20069;-74
2023/07/15 01:42:52;;;;;;;3.47;2.20;;;17.20;99.90;;;;;;5136560;27;20027;-75
2023/07/15 01:45:18;;;;;;;3.22;1.95;;;17.20;99.90;;;;;;5137062;27;20031;-75
2023/07/15 01:47:44;;;;;;;4.50;1.90;;;17.10;99.90;;;;;;5136975;27;20496;-75
2023/07/15 01:50:09;;;;;;;4.40;2.00;;;17.10;99.90;;;;;;5137464;27;20080;-75
2023/07/15 01:52:35;;;;;;;3.22;2.10;;;17.10;99.90;;;;;;5137258;27;20035;-75
2023/07/15 01:55:01;;;;;;;3.13;2.10;;;17.00;99.90;;;;;;5137319;27;20034;-75
2023/07/15 01:57:27;;;;;;;5.05;2.45;;;17.00;99.90;;;;;;5137386;27;20058;-75
2023/07/15 01:59:57;;;;;;;3.03;1.80;;;16.90;99.90;;;;;;5136823;27;20110;-75
2023/07/15 02:02:26;;;;;;;2.80;2.03;;;16.80;99.90;;;;;;5118345;27;20049;-75
2023/07/15 02:04:52;;;;;;;2.88;2.03;;;16.70;99.90;;;;;;5136723;27;20427;-75
2023/07/15 02:07:18;;;;;;;3.53;2.20;;;16.70;99.90;;;;;;5136653;27;20030;-75
2023/07/15 02:09:43;;;;;;;3.65;2.15;;;16.70;99.90;;;;;;5136661;27;20023;-75
2023/07/15 02:12:09;;;;;;;4.22;2.10;;;16.70;99.90;;;;;;5118161;27;20070;-75
2023/07/15 02:14:38;;;;;;;2.25;1.67;;;16.70;99.90;;;;;;5136485;27;20020;-75
2023/07/15 02:17:05;;;;;;;4.18;2.10;;;16.70;99.90;;;;;;5136326;27;20067;-75
2023/07/15 02:19:31;;;;;;;2.72;1.95;;;16.70;99.90;;;;;;5136401;27;20362;-75
2023/07/15 02:21:57;;;;;;;2.67;1.90;;;16.70;99.90;;;;;;5136058;27;20016;-75
2023/07/15 02:24:22;;;;;;;3.22;2.20;;;16.70;99.90;;;;;;5136600;27;20057;-75
2023/07/15 02:26:48;;;;;;;3.53;2.10;;;16.70;99.90;;;;;;5117798;27;20066;-75
2023/07/15 02:29:14;;;;;;;3.08;2.17;;;16.70;99.90;;;;;;5118234;27;20035;-75
2023/07/15 02:31:40;;;;;;;2.83;1.95;;;16.70;99.90;;;;;;5136163;27;20028;-75
2023/07/15 02:34:07;;;;;;;3.08;2.10;;;16.70;99.90;;;;;;5136057;27;20027;-75
2023/07/15 02:36:32;;;;;;;2.55;1.95;;;16.60;99.90;;;;;;5135913;27;20476;-75
2023/07/15 02:38:58;;;;;;;2.65;1.90;;;16.60;99.90;;;;;;5136697;27;20023;-75
2023/07/15 02:41:24;;;;;;;3.10;1.83;;;16.50;99.90;;;;;;5136055;27;20500;-75
2023/07/15 02:43:49;;;;;;;4.25;2.30;;;16.50;99.90;;;;;;5135971;27;20023;-75
2023/07/15 02:46:15;;;;;;;3.20;2.22;;;16.50;99.90;;;;;;5135914;27;20388;-75
2023/07/15 02:48:41;;;;;;;3.92;2.15;;;16.50;99.90;;;;;;5149813;27;20085;-75
2023/07/15 02:51:06;;;;;;;3.78;2.42;;;16.40;99.90;;;;;;5156536;27;20075;-75
2023/07/15 02:53:32;;;;;;;3.28;2.20;;;16.40;99.90;;;;;;5156873;27;20388;-75
2023/07/15 02:55:58;;;;;;;3.60;2.33;;;16.30;99.90;;;;;;5156650;27;20498;-75
2023/07/15 02:58:23;;;;;;;3.72;2.67;;;16.20;99.90;;;;;;5156301;27;20061;-76
2023/07/15 03:00:51;;;;;;;4.70;3.08;;;16.20;99.90;;;;;;5156353;27;20037;-75
2023/07/15 03:03:17;;;;;;;5.97;3.00;;;16.20;99.90;;;;;;5156228;27;20053;-75
2023/07/15 03:05:50;;;;;;;5.70;2.88;;;16.10;99.90;;;;;;5137895;27;20027;-75
2023/07/15 03:08:16;;;;;;;3.83;2.60;;;16.20;99.90;;;;;;5156099;27;20026;-75
2023/07/15 03:10:43;;;;;;;4.32;2.58;;;16.20;99.90;;;;;;5156077;27;20022;-75
2023/07/15 03:13:09;;;;;;;3.53;2.38;;;16.20;99.90;;;;;;5137842;27;20027;-75
2023/07/15 03:15:35;;;;;;;3.95;2.50;;;16.20;99.90;;;;;;5155936;27;20026;-75
2023/07/15 03:18:02;;;;;;;4.43;2.60;;;16.20;99.90;;;;;;5155972;27;20033;-75
2023/07/15 03:20:29;;;;;;;4.28;2.97;;;16.20;99.90;;;;;;5155872;27;20015;-75
2023/07/15 03:22:55;;;;;;;3.53;2.45;;;16.10;99.90;;;;;;5155933;27;20029;-75
2023/07/15 03:25:22;;;;;;;4.50;2.13;;;16.10;99.90;;;;;;5156133;27;20425;-75
2023/07/15 03:27:49;;;;;;;3.00;2.13;;;16.10;99.90;;;;;;5154671;27;20369;-75
2023/07/15 03:30:15;;;;;;;3.92;2.60;;;16.10;99.90;;;;;;5134087;27;20488;-75
2023/07/15 03:32:41;;;;;;;3.53;2.13;;;16.00;99.90;;;;;;5134091;27;20035;-75
2023/07/15 03:35:10;;;;;;;6.28;2.72;;;16.00;99.90;;;;;;5135140;27;20028;-75
2023/07/15 03:37:42;;;;;;;4.18;2.30;;;15.90;99.90;;;;;;5134839;27;20024;-75
2023/07/15 03:40:10;;;;;;;3.90;2.17;;;16.00;99.90;;;;;;5135113;27;20384;-75
2023/07/15 03:42:36;;;;;;;3.90;2.47;;;16.00;99.90;;;;;;5134678;27;20460;-75
2023/07/15 03:45:03;;;;;;;3.22;2.42;;;15.90;99.90;;;;;;5135040;27;20027;-75
2023/07/15 03:47:29;;;;;;;4.00;2.55;;;15.90;99.90;;;;;;5134826;27;20023;-75
2023/07/15 03:49:54;;;;;;;3.53;2.30;;;15.90;99.90;;;;;;5117111;27;20023;-75
2023/07/15 03:52:20;;;;;;;5.75;2.63;;;15.90;99.90;;;;;;5134602;27;20472;-75
2023/07/15 03:54:46;;;;;;;5.72;2.70;;;15.90;99.90;;;;;;5135178;27;20461;-75
2023/07/15 03:57:11;;;;;;;3.58;2.28;;;15.80;99.90;;;;;;5135067;27;20038;-75
2023/07/15 03:59:37;;;;;;;3.53;2.42;;;15.80;99.90;;;;;;5116194;27;20080;-75
2023/07/15 04:02:03;;;;;;;3.25;2.20;;;15.70;99.90;;;;;;5134535;27;20110;-75
2023/07/15 04:04:29;;;;;;;3.47;2.00;;;15.70;99.90;;;;;;5134710;27;20027;-75
2023/07/15 04:06:57;;;;;;;3.15;1.85;;;15.70;99.90;;;;;;5116309;27;20023;-75
2023/07/15 04:09:22;;;;;;;3.70;2.30;;;15.70;99.90;;;;;;5134410;27;20075;-75
2023/07/15 04:11:48;;;;;;;3.42;1.98;;;15.70;99.90;;;;;;5116541;27;20027;-75
2023/07/15 04:14:14;;;;;;;4.07;2.30;;;15.70;99.90;;;;;;5134412;27;20411;-74
2023/07/15 04:16:39;;;;;;;3.85;2.17;;;15.70;99.90;;;;;;5134245;27;20460;-75
2023/07/15 04:19:05;;;;;;;4.75;2.55;;;15.70;99.90;;;;;;5134363;27;20072;-75
2023/07/15 04:21:31;;;;;;;3.90;2.22;;;15.70;99.90;;;;;;5115933;28;20023;-75
2023/07/15 04:23:57;;;;;;;3.08;1.98;;;15.70;99.90;;;;;;5115808;28;20024;-75
2023/07/15 04:26:25;;;;;;;3.25;2.50;;;15.60;99.90;;;;;;5134458;28;20023;-75
2023/07/15 04:28:52;;;;;;;3.22;2.25;;;15.60;99.90;;;;;;5134270;28;20034;-75
2023/07/15 04:31:18;;;;;;;4.00;2.10;;;15.60;99.90;;;;;;5134186;28;20106;-75
2023/07/15 04:33:45;;;;;;;3.10;2.10;;;15.60;99.90;;;;;;5115731;28;20027;-75
2023/07/15 04:36:12;;;;;;;6.80;2.45;;;15.70;99.90;;;;;;5133976;28;20485;-75
2023/07/15 04:38:37;;;;;;;6.10;2.25;;;15.70;99.90;;;;;;5115733;28;20050;-75
2023/07/15 04:41:03;;;;;;;3.67;1.90;;;15.70;99.90;;;;;;5133824;28;20059;-75
2023/07/15 04:43:29;;;;;;;3.63;2.22;;;15.70;99.90;;;;;;5135288;27;20034;-75
2023/07/15 04:45:54;;;;;;;4.97;2.60;;;15.60;99.90;;;;;;5138334;27;20420;-75
2023/07/15 04:48:20;;;;;;;4.10;2.47;;;15.60;99.90;;;;;;5137984;27;20027;-75
2023/07/15 04:50:46;;;;;;;3.45;2.20;;;15.60;99.90;;;;;;5140672;27;20071;-75
2023/07/15 04:53:12;;;;;;;4.25;2.35;;;15.70;99.90;;;;;;5139189;27;20046;-75
2023/07/15 04:55:37;;;;;;;3.50;2.35;;;15.70;99.90;;;;;;5116581;28;20027;-75
2023/07/15 04:58:03;;;;;;;3.33;2.50;;;15.60;99.90;;;;;;5117519;28;20488;-75
2023/07/15 05:00:29;;;;;;;3.63;2.70;;;15.70;99.90;;;;;;5117395;28;20125;-75
2023/07/15 05:02:55;;;;;;;3.88;2.42;;;15.70;99.90;;;;;;5116419;28;20023;-75
2023/07/15 05:05:21;;;;;;;3.42;2.63;;;15.70;99.90;;;;;;5117564;28;20473;-75
2023/07/15 05:07:49;;;;;;;4.22;2.55;;;15.70;99.90;;;;;;5117173;28;20028;-75
2023/07/15 05:10:15;;;;;;;3.55;2.60;;;15.70;99.90;;;;;;5117137;28;20034;-75
2023/07/15 05:12:41;;;;;;;3.40;2.53;;;15.70;99.90;;;;;;5117177;28;20035;-75
2023/07/15 05:15:08;;;;;;;4.20;2.60;;;15.80;99.90;;;;;;5118789;28;20069;-75
2023/07/15 05:17:33;;;;;;;4.95;2.30;;;15.80;99.90;;;;;;5118641;28;20040;-75
2023/07/15 05:19:59;;;;;;;5.13;2.58;;;15.90;99.90;;;;;;5118136;28;20019;-75
2023/07/15 05:22:25;;;;;;;2.97;2.33;;;15.90;99.90;;;;;;5117798;28;20023;-75
2023/07/15 05:24:51;;;;;;;4.10;2.63;;;16.00;99.90;;;;;;5118896;27;20034;-75
2023/07/15 05:27:16;;;;;;;3.47;2.40;;;16.10;99.90;;;;;;5116293;28;20096;-75
2023/07/15 05:29:42;;;;;;;5.05;3.40;;;16.10;99.90;;;;;;5116890;28;20103;-75
2023/07/15 05:32:08;;;;;;;5.35;2.90;;;16.20;99.90;;;;;;5115437;28;20552;-75
2023/07/15 05:34:34;;;;;;;4.07;2.97;;;16.20;99.90;;;;;;5117592;28;20454;-75
2023/07/15 05:36:59;;;;;;;4.30;2.67;;;16.20;99.90;;;;;;5116730;28;20040;-75
2023/07/15 05:39:25;;;;;;;4.30;2.97;;;16.30;99.90;;;;;;5116810;28;20512;-75
2023/07/15 05:41:51;;;;;;;5.40;3.05;;;16.30;99.90;;;;;;5116634;28;20051;-75
2023/07/15 05:44:16;;;;;;;6.15;2.85;;;16.40;99.90;;;;;;5115585;28;20031;-75
2023/07/15 05:46:42;;;;;;;3.90;2.80;;;16.40;99.90;;;;;;5116541;28;20055;-75
2023/07/15 05:49:08;;;;;;;3.55;2.85;;;16.50;99.90;;;;;;5116401;28;20067;-75
2023/07/15 05:51:34;;;;;;;6.07;3.47;;;16.60;99.90;;;;;;5115091;28;20070;-75
2023/07/15 05:54:00;;;;;;;4.10;3.03;;;16.70;99.90;;;;;;5116282;28;20054;-75
2023/07/15 05:56:26;;;;;;;4.57;3.00;;;16.70;99.90;;;;;;5115262;28;20027;-75
2023/07/15 05:58:52;;;;;;;5.68;3.95;;;16.80;99.90;;;;;;5116045;28;20367;-75
2023/07/15 06:01:17;;;;;;;5.20;3.70;;;16.80;99.90;;;;;;5114344;28;20030;-75
2023/07/15 06:03:43;;;;;;;4.90;3.30;;;17.00;99.90;;;;;;5114590;28;20114;-75
2023/07/15 06:06:09;;;;;;;7.20;3.13;;;17.10;99.90;;;;;;5114954;28;20038;-75
2023/07/15 06:08:35;;;;;;;5.53;3.38;;;17.10;99.90;;;;;;5114953;28;20475;-75
2023/07/15 06:11:01;;;;;;;4.43;3.05;;;17.20;99.90;;;;;;5116106;28;20144;-75
2023/07/15 06:13:27;;;;;;;4.65;3.08;;;17.30;99.90;;;;;;5115396;28;20111;-75
2023/07/15 06:15:53;;;;;;;5.18;3.50;;;17.50;99.90;;;;;;5114514;28;20027;-75
2023/07/15 06:18:18;;;;;;;6.93;3.63;;;17.60;99.90;;;;;;5116244;28;20024;-75
2023/07/15 06:20:47;;;;;;;5.32;3.88;;;17.60;99.90;;;;;;5115868;28;20365;-75
2023/07/15 06:23:13;;;;;;;4.65;3.60;;;17.70;99.90;;;;;;5115794;28;20027;-75
2023/07/15 06:25:39;;;;;;;5.85;3.80;;;17.80;99.90;;;;;;5114844;28;20106;-75
2023/07/15 06:28:05;;;;;;;5.78;4.40;;;17.90;99.90;;;;;;5115018;28;20145;-75
2023/07/15 06:30:30;;;;;;;5.85;4.20;;;18.00;99.90;;;;;;5114259;28;20043;-75
2023/07/15 06:32:56;;;;;;;7.05;4.57;;;18.00;99.90;;;;;;5115468;28;20028;-74
2023/07/15 06:35:22;;;;;;;6.03;4.68;;;18.10;99.90;;;;;;5115710;28;20489;-73
2023/07/15 06:37:48;;;;;;;5.18;3.97;;;18.20;99.90;;;;;;5115205;28;20024;-73
2023/07/15 06:40:18;;;;;;;4.40;3.88;;;18.30;99.90;;;;;;5127291;27;20415;-73
2023/07/15 06:42:45;;;;;;;6.15;4.70;;;18.40;99.90;;;;;;5135917;27;20484;-74
2023/07/15 06:45:11;;;;;;;5.78;4.35;;;18.50;99.90;;;;;;5135531;27;20480;-73
2023/07/15 06:47:38;;;;;;;6.15;4.43;;;18.60;99.90;;;;;;5135934;27;20043;-75
2023/07/15 06:50:04;;;;;;;6.10;4.72;;;18.70;99.90;;;;;;5135762;27;20033;-73
2023/07/15 06:52:30;;;;;;;6.90;5.40;;;18.80;99.90;;;;;;5135606;27;20063;-72
2023/07/15 06:54:56;;;;;;;8.23;6.03;;;18.90;99.90;;;;;;5135046;27;20055;-72
2023/07/15 06:57:21;;;;;;;11.15;9.13;;;19.00;99.90;;;;;;5134959;27;20039;-72
2023/07/15 06:59:47;;;;;;;14.70;11.98;;;19.10;99.90;;;;;;5134426;27;20019;-71
2023/07/15 07:02:13;;;;;;;14.27;12.70;;;19.20;99.90;;;;;;5135437;27;20023;-72
2023/07/15 07:04:39;;;;;;;14.80;12.35;;;19.30;99.90;;;;;;5134442;27;20035;-72
2023/07/15 07:07:05;;;;;;;13.10;10.23;;;19.50;99.90;;;;;;5135659;27;20035;-73
2023/07/15 07:09:31;;;;;;;12.82;10.80;;;19.60;99.90;;;;;;5135525;27;20086;-72
2023/07/15 07:11:57;;;;;;;11.23;8.65;;;19.80;99.90;;;;;;5136511;27;20112;-72
2023/07/15 07:14:23;;;;;;;9.88;6.75;;;19.90;99.90;;;;;;5135675;27;20027;-73
2023/07/15 07:16:49;;;;;;;7.80;6.57;;;20.00;99.90;;;;;;5117067;27;20560;-71
2023/07/15 07:19:14;;;;;;;7.47;6.43;;;20.10;99.90;;;;;;5117239;27;20102;-73
2023/07/15 07:21:40;;;;;;;7.55;5.65;;;20.20;99.90;;;;;;5135491;27;20088;-72
2023/07/15 07:24:06;;;;;;;7.30;5.50;;;20.30;99.90;;;;;;5135514;27;20027;-73
2023/07/15 07:26:32;;;;;;;7.72;5.40;;;20.40;99.90;;;;;;5135195;27;20489;-73
2023/07/15 07:28:58;;;;;;;9.82;5.80;;;20.50;99.90;;;;;;5116984;27;20023;-71
2023/07/15 07:31:24;;;;;;;17.63;7.65;;;20.70;99.90;;;;;;5147937;27;20087;-71
2023/07/15 07:33:49;;;;;;;9.02;4.05;;;20.90;99.90;;;;;;5136268;27;20480;-71
2023/07/15 07:36:15;;;;;;;4.38;3.30;;;21.00;99.90;;;;;;5134870;27;20027;-73
2023/07/15 07:38:41;;;;;;;4.60;3.15;;;21.10;99.90;;;;;;5135521;27;20464;-73
2023/07/15 07:41:09;;;;;;;5.43;3.60;;;21.30;99.90;;;;;;5134363;27;20392;-71
2023/07/15 07:43:36;;;;;;;5.05;3.50;;;21.50;99.90;;;;;;5133447;27;20030;-71
2023/07/15 07:46:04;;;;;;;4.28;2.70;;;21.60;99.90;;;;;;5102029;28;20075;-72
2023/07/15 07:48:30;;;;;;;6.88;3.88;;;21.70;99.90;;;;;;5130770;27;20038;-72
2023/07/15 07:50:57;;;;;;;3.92;3.13;;;21.90;99.90;;;;;;5133375;27;20027;-71
2023/07/15 07:53:23;;;;;;;5.75;3.13;;;22.00;99.90;;;;;;5134687;27;20030;-71
2023/07/15 07:55:50;;;;;;;5.63;2.75;;;22.10;99.90;;;;;;5134594;27;20027;-73
2023/07/15 07:58:16;;;;;;;4.03;3.10;;;22.20;99.90;;;;;;5134178;27;20077;-71
2023/07/15 08:00:41;;;;;;;3.97;3.03;;;22.40;99.90;;;;;;5134251;27;20023;-71
2023/07/15 08:03:07;;;;;;;4.53;3.38;;;22.60;99.90;;;;;;5114532;28;20023;-72
2023/07/15 08:05:33;;;;;;;4.07;3.10;;;22.80;99.90;;;;;;5134529;27;20031;-73
2023/07/15 08:07:58;;;;;;;5.25;3.28;;;22.90;99.90;;;;;;5134500;27;20027;-73
2023/07/15 08:10:24;;;;;;;6.53;3.90;;;23.00;99.90;;;;;;5134516;27;20110;-73
2023/07/15 08:12:49;;;;;;;4.90;3.55;;;23.20;99.90;;;;;;5134460;27;20062;-72
2023/07/15 08:15:15;;;;;;;6.13;4.25;;;23.30;99.90;;;;;;5134332;27;20031;-73
2023/07/15 08:17:41;;;;;;;5.68;4.38;;;23.40;99.90;;;;;;5133487;27;20550;-72
2023/07/15 08:20:11;;;;;;;5.55;4.47;;;23.60;99.90;;;;;;5134899;27;20468;-73
2023/07/15 08:22:37;;;;;;;4.53;3.55;;;23.80;99.90;;;;;;5134042;27;20032;-72
2023/07/15 08:25:03;;;;;;;4.40;3.75;;;23.90;99.90;;;;;;5134089;28;20493;-72
2023/07/15 08:27:29;;;;;;;5.70;3.63;;;24.00;99.90;;;;;;5134321;28;20031;-73
2023/07/15 08:29:54;;;;;;;5.20;3.17;;;24.10;99.90;;;;;;5115914;28;20027;-73
2023/07/15 08:32:20;;;;;;;3.95;2.80;;;24.30;99.90;;;;;;5133863;28;20027;-72
2023/07/15 08:35:05;;;;;;;4.85;2.80;;;24.40;99.90;;;;;;5133950;28;20035;-72
2023/07/15 08:37:31;;;;;;;4.93;2.90;;;24.50;98.70;;;;;;5133602;28;20106;-72
2023/07/15 08:39:57;;;;;;;4.22;3.00;;;24.70;99.00;;;;;;5115654;28;20052;-73
2023/07/15 08:42:23;;;;;;;4.93;2.75;;;24.80;98.70;;;;;;5133716;28;20053;-72
2023/07/15 08:44:52;;;;;;;4.40;2.78;;;24.90;98.60;;;;;;5133811;28;20030;-72
2023/07/15 08:47:22;;;;;;;5.32;3.22;;;25.00;98.90;;;;;;5133958;28;20023;-74
2023/07/15 08:49:49;;;;;;;4.63;3.00;;;25.20;98.80;;;;;;5116070;28;20083;-73
2023/07/15 08:52:20;;;;;;;4.75;3.13;;;25.30;98.60;;;;;;5133886;28;20484;-72
2023/07/15 08:54:51;;;;;;;5.72;3.55;;;25.50;99.50;;;;;;5134018;28;20042;-74
2023/07/15 08:57:18;;;;;;;6.45;3.53;;;25.60;99.70;;;;;;5133589;28;20077;-72
2023/07/15 08:59:48;;;;;;;5.18;3.88;;;25.80;99.60;;;;;;5133600;28;20023;-72
2023/07/15 09:02:14;;;;;;;7.93;4.78;;;25.90;99.10;;;;;;5133890;28;20114;-73
2023/07/15 09:04:40;;;;;;;6.90;4.35;;;26.00;99.40;;;;;;5134100;28;20106;-73
2023/07/15 09:07:06;;;;;;;4.55;3.63;;;26.10;99.10;;;;;;5133976;28;20037;-73
2023/07/15 09:09:34;;;;;;;9.10;5.00;;;26.30;99.30;;;;;;5133913;28;20024;-73
2023/07/15 09:12:02;;;;;;;5.15;4.13;;;26.40;99.20;;;;;;5133866;28;20028;-72
2023/07/15 09:14:28;;;;;;;6.88;4.68;;;26.60;98.50;;;;;;5134047;28;20542;-73
2023/07/15 09:16:55;;;;;;;7.47;4.95;;;26.70;97.70;;;;;;5133784;28;20031;-72
2023/07/15 09:19:22;;;;;;;6.23;5.13;;;26.80;99.00;;;;;;5133621;28;20019;-73
2023/07/15 09:21:52;;;;;;;6.57;4.78;;;26.90;98.80;;;;;;5133404;28;20027;-72
2023/07/15 09:24:18;;;;;;;;;;;27.00;98.00;;;;;;5133714;28;20023;-73
2023/07/15 09:26:47;;;;;;;;;;;27.10;97.10;;;;;;5133600;28;25149;-72
2023/07/15 09:29:13;;;;;;;;;;;27.20;97.90;;;;;;5132932;27;19912;-72
2023/07/15 09:31:38;;;;;;;;;;;27.30;98.50;;;;;;5136489;27;19992;-72
2023/07/15 09:34:04;;;;;;;;;;;27.40;97.60;;;;;;5140403;27;20373;-73
2023/07/15 09:36:33;;;;;;;;;;;27.40;97.60;;;;;;5138128;27;19926;-73
2023/07/15 09:39:01;;;;;;;;;;;27.60;96.90;;;;;;5138632;27;20133;-73
2023/07/15 09:41:26;;;;;;;;;;;27.70;96.80;;;;;;5138690;27;20048;-72
2023/07/15 09:43:52;;;;;;;;;;;27.80;95.30;;;;;;5137166;27;19976;-73
2023/07/15 09:46:19;;;;;;;;;;;27.90;95.40;;;;;;5137606;27;20368;-73
2023/07/15 09:48:45;;;;;;;;;;;28.00;95.00;;;;;;5140521;27;19919;-72
2023/07/15 09:51:12;;;;;;;;;;;28.20;94.90;;;;;;5119494;27;20000;-72
2023/07/15 09:53:56;;;;;;;;;;;28.30;95.60;;;;;;5119577;27;20273;-71
2023/07/15 09:56:24;;;;;;;;;;;28.40;95.20;;;;;;5133384;27;19915;-72
2023/07/15 09:58:50;;;;;;;;;;;28.60;95.00;;;;;;5135588;27;19994;-71
2023/07/15 10:01:24;;;;;;;;;;;28.80;94.30;;;;;;5127425;27;19908;-71
2023/07/15 10:03:54;;;;;;;;;;;29.00;93.70;;;;;;5122374;27;19916;-71
2023/07/15 10:06:21;;;;;;;;;;;29.20;92.20;;;;;;5116913;27;19963;-71
2023/07/15 10:08:47;;;;;;;;;;;29.30;91.80;;;;;;5111703;28;20298;-72
2023/07/15 10:11:13;;;;;;;;;;;29.40;91.80;;;;;;5119932;27;19916;-71
2023/07/15 10:13:39;;;;;;;;;;;29.50;90.60;;;;;;5102114;27;19920;-72
2023/07/15 10:16:05;;;;;;;;;;;29.70;89.00;;;;;;5128591;27;19915;-71
2023/07/15 10:18:34;;;;;;;;;;;29.90;84.90;;;;;;5120734;27;19958;-71
2023/07/15 10:21:03;;;;;;;;;;;30.00;87.00;;;;;;5098488;28;19912;-71
2023/07/15 10:23:32;;;;;;;;;;;30.20;82.40;;;;;;5116887;27;19911;-71
2023/07/15 10:26:01;;;;;;;;;;;30.30;80.20;;;;;;5116919;27;19963;-71
2023/07/15 10:28:29;;;;;;;;;;;30.40;77.50;;;;;;5125399;27;20291;-71
2023/07/15 10:31:07;;;;;;;;;;;30.60;76.20;;;;;;5119826;27;19978;-71
2023/07/15 10:33:33;;;;;;;;;;;30.60;71.60;;;;;;5120440;27;20297;-71
2023/07/15 10:35:59;;;;;;;;;;;30.80;73.40;;;;;;5120700;27;19962;-71
2023/07/15 10:38:24;;;;;;;;;;;30.90;73.40;;;;;;5128230;27;19947;-72
2023/07/15 10:40:51;;;;;;;;;;;31.00;74.30;;;;;;5123844;27;19911;-71
2023/07/15 10:43:21;;;;;;;;;;;31.10;72.00;;;;;;5120365;27;19915;-71
2023/07/15 10:45:51;;;;;;;;;;;31.20;71.00;;;;;;5121693;27;19912;-72
2023/07/15 10:48:17;;;;;;;;;;;31.30;68.30;;;;;;5118114;27;19960;-71
2023/07/15 10:50:45;;;;;;;;;;;31.50;66.00;;;;;;5119617;27;19957;-71
2023/07/15 10:53:25;;;;;;;;;;;31.50;63.90;;;;;;5115624;27;19908;-71
2023/07/15 10:55:58;;;;;;;;;;;31.60;66.80;;;;;;5115779;28;19911;-71
2023/07/15 10:58:28;;;;;;;;;;;31.80;65.50;;;;;;5097726;28;19912;-71
2023/07/15 11:00:59;;;;;;;;;;;31.90;62.70;;;;;;5115475;28;19912;-71
2023/07/15 11:03:24;;;;;;;;;;;32.10;63.20;;;;;;5115452;28;20006;-71
2023/07/15 11:05:50;;;;;;;;;;;32.20;63.60;;;;;;5115411;28;19951;-71
2023/07/15 11:08:19;;;;;;;;;;;32.30;65.30;;;;;;5097424;28;19959;-71
2023/07/15 11:10:45;;;;;;;;;;;32.40;63.70;;;;;;5115641;28;19979;-71
2023/07/15 11:13:12;;;;;;;;;;;32.50;60.80;;;;;;5115194;28;19995;-71
2023/07/15 11:15:37;;;;;;;;;;;32.60;60.60;;;;;;5115505;28;19918;-71
2023/07/15 11:18:03;;;;;;;;;;;32.60;59.60;;;;;;5123121;27;19923;-72
2023/07/15 11:20:28;;;;;;;;;;;32.70;57.30;;;;;;5135656;27;20281;-72
2023/07/15 11:22:54;;;;;;;;;;;32.80;58.50;;;;;;5134959;27;20385;-71
2023/07/15 11:25:20;;;;;;;;;;;32.90;56.90;;;;;;5124700;27;19923;-72
2023/07/15 11:27:46;;;;;;;;;;;32.90;59.20;;;;;;5124507;27;19955;-72
2023/07/15 11:30:11;;;;;;;;;;;33.00;59.30;;;;;;5118318;27;19939;-73
2023/07/15 11:32:37;;;;;;;;;;;33.00;58.10;;;;;;5133513;27;19911;-72
2023/07/15 11:35:12;;;;;;;;;;;33.10;57.90;;;;;;5132147;27;19915;-71
2023/07/15 11:37:44;;;;;;;;;;;33.20;57.30;;;;;;5134017;27;19911;-71
2023/07/15 11:40:19;;;;;;;;;;;33.30;60.10;;;;;;5134468;27;19914;-71
2023/07/15 11:42:44;;;;;;;;;;;33.40;60.80;;;;;;5133959;27;19939;-71
2023/07/15 11:45:11;;;;;;;;;;;33.60;58.40;;;;;;5134778;27;19976;-71
2023/07/15 11:47:36;;;;;;;;;;;33.70;57.50;;;;;;5100182;28;19916;-71
2023/07/15 11:50:05;;;;;;;;;;;33.80;54.60;;;;;;5126395;27;20332;-71
2023/07/15 11:52:41;;;;;;;;;;;33.80;56.40;;;;;;5115549;28;19915;-71
2023/07/15 11:55:07;;;;;;;;;;;33.80;56.30;;;;;;5130823;27;19954;-71
2023/07/15 11:57:40;;;;;;;;;;;33.90;58.20;;;;;;5133780;27;20384;-71
2023/07/15 12:00:08;;;;;;;;;;;34.00;53.80;;;;;;5134308;27;19907;-71
2023/07/15 12:02:35;;;;;;;;;;;34.00;56.70;;;;;;5133204;27;19915;-71
2023/07/15 12:05:01;;;;;;;;;;;34.10;57.40;;;;;;5117463;27;20396;-71
2023/07/15 12:07:26;;;;;;;;;;;34.20;53.40;;;;;;5096085;28;19955;-71
2023/07/15 12:10:04;;;;;;;;;;;34.30;56.70;;;;;;5114372;28;19915;-71
2023/07/15 12:12:30;;;;;;;;;;;34.40;56.20;;;;;;5126380;27;20270;-71
2023/07/15 12:14:55;;;;;;;;;;;34.60;55.00;;;;;;5129430;27;19938;-71
2023/07/15 12:17:21;;;;;;;;;;;34.60;55.60;;;;;;5125961;27;19916;-71
2023/07/15 12:19:46;;;;;;;;;;;34.70;55.50;;;;;;5133288;27;19939;-71
2023/07/15 12:22:12;;;;;;;;;;;34.70;56.70;;;;;;5116210;28;19912;-72
2023/07/15 12:24:38;;;;;;;;;;;34.90;56.50;;;;;;5133277;27;19907;-72
2023/07/15 12:27:03;;;;;;;;;;;35.00;53.80;;;;;;5134752;28;19963;-71
2023/07/15 12:29:29;;;;;;;;;;;35.10;54.30;;;;;;5134913;28;19915;-72
2023/07/15 12:31:54;;;;;;;;;;;35.20;54.80;;;;;;5116501;28;20339;-72
2023/07/15 12:34:20;;;;;;;;;;;35.20;53.10;;;;;;5134910;28;20010;-72
2023/07/15 12:36:46;;;;;;;;;;;35.20;53.20;;;;;;5134569;28;19922;-72
2023/07/15 12:39:12;;;;;;;;;;;35.30;53.90;;;;;;5134987;28;19911;-72
2023/07/15 12:41:37;;;;;;;;;;;35.40;54.80;;;;;;5135050;28;19907;-72
2023/07/15 12:44:03;;;;;;;;;;;35.50;51.90;;;;;;5134783;28;19915;-72
2023/07/15 12:46:28;;;;;;;;;;;35.60;53.50;;;;;;5134441;28;19912;-72
2023/07/15 12:48:54;;;;;;;;;;;35.70;56.00;;;;;;5134249;28;19976;-70
2023/07/15 12:51:19;;;;;;;;;;;35.80;53.10;;;;;;5134606;28;19943;-69
2023/07/15 12:53:45;;;;;;;;;;;36.00;54.40;;;;;;5134408;28;20418;-68
2023/07/15 12:56:13;;;;;;;;;;;36.10;55.10;;;;;;5134634;28;19922;-69
2023/07/15 12:58:39;;;;;;;;;;;36.00;51.50;;;;;;5134352;28;20292;-69
2023/07/15 13:01:05;;;;;;;;;;;36.00;52.00;;;;;;5134686;28;20314;-69
2023/07/15 13:03:31;;;;;;;;;;;36.10;50.00;;;;;;5134315;28;19912;-69
2023/07/15 13:05:56;;;;;;;;;;;36.10;49.00;;;;;;5138084;27;19918;-68
2023/07/15 13:08:22;;;;;;;;;;;36.10;47.00;;;;;;5120028;27;19994;-69